Prince George Airport
CYXS : now visible

Airfield :











YOU CAN JOIN US ON...

 
LOGIN :

Register | Disclaimer

   EN    FR    IT 

 









Legend :    VFR   Marginal VFR   IFR   Intensive IFR   Very Intensive IFR
Visi :
Ceiling :
>= 8 km
>= 3000ft
5 to 8 km
1000 to 3000 ft
1500m to 5 km
500 to 1000 ft
800 to 1500m
200 to 500 ft
< 800m
< 200 ft
Symbols :   Thunderstorms  Fog  Heavy snow  Heavy precipitations  Wind > 20 kt






- Airport Elevation : 2267 ft
- IATA code : YXS


CYXS - Prince George

CURRENT METAR :
  • 291202Z AUTO 00000KT 9SM -RA BKN005 OVC009 12/12 A2988 RMK SLP130 DENSITY ALT 2600FT

EXPIRED METARs :
  • 291153Z AUTO 30002KT 8SM -RA SCT003 OVC009 12/12 A2987 RMK PCPN 1.2MM PAST HR SLP129 DENSITY ALT 2600FT
  • 291138Z AUTO VRB02KT 6SM -RA BR BKN003 OVC009 12/12 A2987 RMK PCPN 1.0MM PAST HR SLP128 DENSITY ALT 2600FT
  • 291117Z AUTO 00000KT 4SM RA BR BKN003 BKN011 BKN025 OVC037 12/12 A2987 RMK PCPN 0.5MM PAST HR SLP126 DENSITY ALT 2600FT
  • 291114Z AUTO 00000KT 5SM -RA BR SCT003 BKN011 BKN025 OVC037 12/12 A2987 RMK PCPN 0.5MM PAST HR SLP126 DENSITY ALT 2600FT
  • 291048Z AUTO 26003KT 5SM RA BR FEW007 BKN018 OVC028 12/12 A2986 RMK PCPN 0.8MM PAST HR SLP124 DENSITY ALT 2600FT
  • 291031Z AUTO 25002KT 9SM -RA SCT009 BKN018 BKN022 OVC032 12/12 A2986 RMK SLP124 DENSITY ALT 2600FT
  • 291000Z AUTO 21003KT 8SM -RA OVC009 13/12 A2986 RMK SLP118 DENSITY ALT 2600FT
  • 290925Z AUTO 17004KT 9SM -RA BKN009 OVC033 12/12 A2986 RMK SLP123 DENSITY ALT 2600FT

TAF AMD TAF CYXS
Valid from the 29 at 11:00 until the 29 at 19:00 UTC


291145Z 2911/2919 VRB03KT P6SM SCT008 OVC010
TEMPO 2911/2915 1SM -RA BR BKN003
FM291500 36005KT P6SM SCT020 BKN050
TEMPO 2915/2919 P6SM -SHRA VCTS BKN020CB RMK FCST BASED ON AUTO OBS. NXT FCST BY 291300Z
CZVR FIR / North America



MET'MAP, your aeronautical weather chart ! - Copyright ORBIFLY December 2007 - Disclaimer

ORBIFLY MET'MAP TEAM :

Programming & Development : Alexandra Zaïnal
Original concept : Baudouin d'Aumeries
Technical & hardware support : Manuel Goepfert
Assistance : Marc-Olivier Méhu




SOURCES & CREDITS :

   NOAA       Earth
Advisory